Disney Magic — C6PT7 — position and weather

sailwx.info

Track history (hours):
 
Tides and Currents Weather Stations Pressure Air Temp Water Temp Dewpoint Dewpoint Depression Visibility Wind Speed Wind Dir Waves Ship Positions

Disney Magic

Last reported at 2016-Dec-05 00:33 UTC. Time now 2016-Dec-08 06:02 UTC.
Position N 25°27' W 079°58'.

Type: Passenger vessel. MMSI: 308516000.

Date/timePositionNaut miles runAvg speedWind from/ knotsBaromVisibWave heightAir tempDewpointWater temp
2016-Dec-05 00:33N 25°27' W 079°58'1313.4
2016-Dec-04 23:33N 25°40' W 079°59'1010.5
2016-Dec-04 22:33N 25°46' W 080°08'2 2.1
2016-Dec-04 21:32N 25°47' W 080°10'0 0.0
2016-Dec-04 20:32N 25°47' W 080°10'0 0.0
2016-Dec-04 19:32N 25°47' W 080°10'0 0.0
2016-Dec-04 18:32N 25°47' W 080°10'0 0.0
2016-Dec-04 17:29N 25°47' W 080°10'0 0.0
2016-Dec-04 16:32N 25°47' W 080°10'0 0.0
2016-Dec-04 15:32N 25°47' W 080°10'0 0.0
2016-Dec-04 14:32N 25°47' W 080°10'0 0.0
2016-Dec-04 13:32N 25°47' W 080°10'0 0.0
2016-Dec-04 12:32N 25°47' W 080°10'0 0.0
2016-Dec-04 11:32N 25°47' W 080°10'0 0.0
2016-Dec-04 10:34N 25°47' W 080°10'3 3.5
2016-Dec-04 09:34N 25°45' W 080°07'1010.3
2016-Dec-04 08:33N 25°50' W 079°57'1313.3
2016-Dec-04 07:33N 25°57' W 079°44'1414.0
2016-Dec-04 06:33N 26°04' W 079°30'  
2016-Dec-01 10:30N 18°16' W 064°55'6 6.1
2016-Dec-01 09:33N 18°12' W 064°50'20 1.8
2016-Nov-30 22:33N 18°24' W 064°33'2 0.2
2016-Nov-30 10:33N 18°25' W 064°35'9 8.8
2016-Nov-30 09:33N 18°31' W 064°29'1414.1
2016-Nov-30 08:33N 18°43' W 064°37'1514.4
2016-Nov-30 07:33N 18°55' W 064°46'47216.5
2016-Nov-29 03:00N 23°06' W 071°54'23119.2 070 / 291015.2 5.4 25.019.926.9
2016-Nov-28 15:00N 25°06' W 075°30'2322.5 060 / 301017.710.8 24.519.426.5
2016-Nov-28 14:00N 25°12' W 075°54'17816.2 060 / 351017.210.8 24.519.426.7
2016-Nov-28 03:00N 26°12' W 079°00'1320.0 040 / 261018.210.8 23.017.726.7
2016-Nov-28 02:21N 26°11' W 079°14'617.7
2016-Nov-28 02:00N 26°06' W 079°18'818.0 050 / 221018.210.8 23.017.727.3
2016-Nov-28 01:33N 26°05' W 079°27'1716.8
2016-Nov-28 00:33N 25°56' W 079°43'1717.1
2016-Nov-27 23:34N 25°48' W 079°60'9 9.1
2016-Nov-27 22:33N 25°46' W 080°10'1 0.9
2016-Nov-27 21:33N 25°47' W 080°10'0 0.0
2016-Nov-27 20:33N 25°47' W 080°10'0 0.0
2016-Nov-27 19:33N 25°47' W 080°10'0 0.0
2016-Nov-27 18:33N 25°47' W 080°10'0 0.0
2016-Nov-27 17:33N 25°47' W 080°10'0 0.0
2016-Nov-27 16:33N 25°47' W 080°10'0 0.0
2016-Nov-27 15:33N 25°47' W 080°10'0 0.0
2016-Nov-27 14:33N 25°47' W 080°10'0 0.0
2016-Nov-27 13:33N 25°47' W 080°10'0 0.0
2016-Nov-27 12:33N 25°47' W 080°10'0 0.0
2016-Nov-27 11:33N 25°47' W 080°10'1 0.5
2016-Nov-27 10:33N 25°47' W 080°11'7 7.4
2016-Nov-27 09:33N 25°47' W 080°03'1313.5
2016-Nov-27 08:33N 25°54' W 079°50'1515.0
2016-Nov-27 07:33N 26°02' W 079°36'1615.6
2016-Nov-27 06:33N 26°09' W 079°20'17 0.7
2016-Nov-26 05:33N 25°52' W 079°24'2019.5
2016-Nov-26 04:33N 25°33' W 079°30'17217.9
2016-Nov-25 19:00N 23°36' W 081°48'1817.6 080 / 161020.210.8 26.223.927.9
2016-Nov-25 18:00N 23°30' W 082°06'20919.0 060 / 161020.210.8 26.223.927.9
2016-Nov-25 07:00N 22°00' W 085°30'1616.4 080 / 211019.210.8 26.525.428.3
2016-Nov-25 06:00N 21°48' W 085°42'   090 / 221019.210.8 26.525.428.1
Track history (hours):
 
Tides and Currents Weather Stations Pressure Air Temp Water Temp Dewpoint Dewpoint Depression Visibility Wind Speed Wind Dir Waves Ship Positions

Disney Magic

Last reported at 2016-Dec-05 00:33 UTC. Time now 2016-Dec-08 06:02 UTC.
Position N 25°27' W 079°58'.

Type: Passenger vessel. MMSI: 308516000.

Date/timePositionNaut miles runAvg speedWind from/ knotsBaromVisibWave heightAir tempDewpointWater temp
2016-Dec-05 00:33N 25°27' W 079°58'1313.4
2016-Dec-04 23:33N 25°40' W 079°59'1010.5
2016-Dec-04 22:33N 25°46' W 080°08'2 2.1
2016-Dec-04 21:32N 25°47' W 080°10'0 0.0
2016-Dec-04 20:32N 25°47' W 080°10'0 0.0
2016-Dec-04 19:32N 25°47' W 080°10'0 0.0
2016-Dec-04 18:32N 25°47' W 080°10'0 0.0
2016-Dec-04 17:29N 25°47' W 080°10'0 0.0
2016-Dec-04 16:32N 25°47' W 080°10'0 0.0
2016-Dec-04 15:32N 25°47' W 080°10'0 0.0
2016-Dec-04 14:32N 25°47' W 080°10'0 0.0
2016-Dec-04 13:32N 25°47' W 080°10'0 0.0
2016-Dec-04 12:32N 25°47' W 080°10'0 0.0
2016-Dec-04 11:32N 25°47' W 080°10'0 0.0
2016-Dec-04 10:34N 25°47' W 080°10'3 3.5
2016-Dec-04 09:34N 25°45' W 080°07'1010.3
2016-Dec-04 08:33N 25°50' W 079°57'1313.3
2016-Dec-04 07:33N 25°57' W 079°44'1414.0
2016-Dec-04 06:33N 26°04' W 079°30'  
2016-Dec-01 10:30N 18°16' W 064°55'6 6.1
2016-Dec-01 09:33N 18°12' W 064°50'20 1.8
2016-Nov-30 22:33N 18°24' W 064°33'2 0.2
2016-Nov-30 10:33N 18°25' W 064°35'9 8.8
2016-Nov-30 09:33N 18°31' W 064°29'1414.1
2016-Nov-30 08:33N 18°43' W 064°37'1514.4
2016-Nov-30 07:33N 18°55' W 064°46'47216.5
2016-Nov-29 03:00N 23°06' W 071°54'23119.2 070 / 291015.2 5.4 25.019.926.9
2016-Nov-28 15:00N 25°06' W 075°30'2322.5 060 / 301017.710.8 24.519.426.5
2016-Nov-28 14:00N 25°12' W 075°54'17816.2 060 / 351017.210.8 24.519.426.7
2016-Nov-28 03:00N 26°12' W 079°00'1320.0 040 / 261018.210.8 23.017.726.7
2016-Nov-28 02:21N 26°11' W 079°14'617.7
2016-Nov-28 02:00N 26°06' W 079°18'818.0 050 / 221018.210.8 23.017.727.3
2016-Nov-28 01:33N 26°05' W 079°27'1716.8
2016-Nov-28 00:33N 25°56' W 079°43'1717.1
2016-Nov-27 23:34N 25°48' W 079°60'9 9.1
2016-Nov-27 22:33N 25°46' W 080°10'1 0.9
2016-Nov-27 21:33N 25°47' W 080°10'0 0.0
2016-Nov-27 20:33N 25°47' W 080°10'0 0.0
2016-Nov-27 19:33N 25°47' W 080°10'0 0.0
2016-Nov-27 18:33N 25°47' W 080°10'0 0.0
2016-Nov-27 17:33N 25°47' W 080°10'0 0.0
2016-Nov-27 16:33N 25°47' W 080°10'0 0.0
2016-Nov-27 15:33N 25°47' W 080°10'0 0.0
2016-Nov-27 14:33N 25°47' W 080°10'0 0.0
2016-Nov-27 13:33N 25°47' W 080°10'0 0.0
2016-Nov-27 12:33N 25°47' W 080°10'0 0.0
2016-Nov-27 11:33N 25°47' W 080°10'1 0.5
2016-Nov-27 10:33N 25°47' W 080°11'7 7.4
2016-Nov-27 09:33N 25°47' W 080°03'1313.5
2016-Nov-27 08:33N 25°54' W 079°50'1515.0
2016-Nov-27 07:33N 26°02' W 079°36'1615.6
2016-Nov-27 06:33N 26°09' W 079°20'17 0.7
2016-Nov-26 05:33N 25°52' W 079°24'2019.5
2016-Nov-26 04:33N 25°33' W 079°30'17217.9
2016-Nov-25 19:00N 23°36' W 081°48'1817.6 080 / 161020.210.8 26.223.927.9
2016-Nov-25 18:00N 23°30' W 082°06'20919.0 060 / 161020.210.8 26.223.927.9
2016-Nov-25 07:00N 22°00' W 085°30'1616.4 080 / 211019.210.8 26.525.428.3
2016-Nov-25 06:00N 21°48' W 085°42'   090 / 221019.210.8 26.525.428.1

Dump ship's entire track history